createdAt,value
2017-12-24T00:00:38.976Z,50.37
2017-12-24T00:03:05.256Z,50.00
2017-12-24T00:05:31.558Z,47.17
2017-12-24T00:07:57.824Z,48.07
2017-12-24T00:10:24.150Z,48.30
2017-12-24T00:12:50.404Z,51.73
2017-12-24T00:15:17.426Z,48.87
2017-12-24T00:17:43.704Z,51.67
2017-12-24T00:20:09.956Z,49.53
2017-12-24T00:22:36.230Z,48.57
2017-12-24T00:25:03.253Z,49.60
2017-12-24T00:27:29.515Z,48.13
2017-12-24T00:29:55.802Z,49.37
2017-12-24T00:32:22.055Z,50.37
2017-12-24T00:34:48.351Z,48.43
2017-12-24T00:37:14.602Z,46.07
2017-12-24T00:39:40.963Z,50.33
2017-12-24T00:42:08.003Z,49.83
2017-12-24T00:44:34.269Z,48.50
2017-12-24T00:47:00.517Z,49.77
2017-12-24T00:49:26.776Z,50.90
2017-12-24T00:51:53.032Z,50.13
2017-12-24T00:54:25.417Z,54.43
2017-12-24T00:56:51.676Z,47.90
2017-12-24T00:59:17.987Z,50.10
2017-12-24T01:01:44.215Z,47.30
2017-12-24T01:04:10.472Z,48.27
2017-12-24T01:06:36.795Z,52.07
2017-12-24T01:09:03.066Z,52.20
2017-12-24T01:11:30.081Z,50.40
2017-12-24T01:13:56.331Z,53.40
2017-12-24T01:16:23.328Z,52.57
2017-12-24T01:18:49.660Z,55.80
2017-12-24T01:21:15.923Z,55.10
2017-12-24T01:23:42.976Z,47.67
2017-12-24T01:26:10.010Z,52.80
2017-12-24T01:28:37.031Z,54.87
2017-12-24T01:31:03.345Z,50.27
2017-12-24T01:33:29.638Z,50.70
2017-12-24T01:35:56.635Z,50.93
2017-12-24T01:38:23.809Z,47.83
2017-12-24T01:40:50.075Z,49.80
2017-12-24T01:43:16.385Z,43.80
2017-12-24T01:45:43.518Z,43.90
2017-12-24T01:48:09.834Z,48.57
2017-12-24T01:50:36.102Z,44.90
2017-12-24T01:53:03.143Z,39.53
2017-12-24T01:55:30.151Z,44.37
2017-12-24T01:57:56.403Z,43.27
2017-12-24T02:00:23.406Z,41.77
2017-12-24T02:02:49.707Z,45.80
2017-12-24T02:05:16.010Z,38.60
2017-12-24T02:07:42.266Z,40.83
2017-12-24T02:10:08.585Z,44.63
2017-12-24T02:12:34.827Z,39.80
2017-12-24T02:15:01.114Z,46.33
2017-12-24T02:17:27.349Z,38.73
2017-12-24T02:19:54.370Z,39.80
2017-12-24T02:22:20.652Z,35.47
2017-12-24T02:24:47.636Z,36.60
2017-12-24T02:27:13.908Z,39.10
2017-12-24T02:29:40.152Z,34.53
2017-12-24T02:32:06.457Z,35.13
2017-12-24T02:34:32.683Z,36.83
2017-12-24T02:36:58.947Z,37.80
2017-12-24T02:39:25.218Z,37.00
2017-12-24T02:41:51.450Z,41.10
2017-12-24T02:44:17.695Z,36.80
2017-12-24T02:46:43.907Z,35.87
2017-12-24T02:49:10.260Z,34.00
2017-12-24T02:51:36.466Z,39.20
2017-12-24T02:54:02.746Z,41.87
2017-12-24T02:56:28.999Z,32.83
2017-12-24T02:58:55.250Z,35.87
2017-12-24T03:01:21.535Z,32.20
2017-12-24T03:03:47.790Z,39.40
2017-12-24T03:06:14.064Z,38.23
2017-12-24T03:08:41.076Z,34.83
2017-12-24T03:11:07.465Z,35.17
2017-12-24T03:13:33.703Z,31.47
2017-12-24T03:15:59.978Z,40.57
2017-12-24T03:18:26.259Z,36.23
2017-12-24T03:20:52.669Z,38.77
2017-12-24T03:23:19.718Z,40.93
2017-12-24T03:25:46.101Z,40.27
2017-12-24T03:28:12.379Z,32.20
2017-12-24T03:30:39.398Z,38.70
2017-12-24T03:33:06.454Z,35.77
2017-12-24T03:35:33.443Z,38.40
2017-12-24T03:37:59.672Z,39.00
2017-12-24T03:40:25.976Z,42.20
2017-12-24T03:42:52.235Z,43.73
2017-12-24T03:45:18.530Z,42.53
2017-12-24T03:47:44.862Z,36.43
2017-12-24T03:50:11.953Z,45.93
2017-12-24T03:52:38.240Z,41.83
2017-12-24T03:55:05.205Z,39.10
2017-12-24T03:57:31.473Z,36.53
2017-12-24T03:59:57.750Z,38.40
2017-12-24T04:02:24.086Z,35.37
2017-12-24T04:04:50.350Z,41.97
2017-12-24T04:07:16.594Z,40.63
2017-12-24T04:09:42.851Z,43.30
2017-12-24T04:12:09.824Z,42.10
2017-12-24T04:14:36.043Z,34.23
2017-12-24T04:17:02.333Z,36.90
2017-12-24T04:19:28.562Z,40.43
2017-12-24T04:21:54.818Z,38.40
2017-12-24T04:24:21.096Z,39.43
2017-12-24T04:26:47.337Z,38.90
2017-12-24T04:29:13.605Z,34.93
2017-12-24T04:31:40.578Z,39.23
2017-12-24T04:34:06.854Z,36.40
2017-12-24T04:36:33.905Z,39.37
2017-12-24T04:39:00.970Z,32.70
2017-12-24T04:41:27.307Z,32.80
2017-12-24T04:43:53.634Z,41.30
2017-12-24T04:46:19.967Z,39.17
2017-12-24T04:48:46.211Z,38.37
2017-12-24T04:51:12.513Z,43.07
2017-12-24T04:53:39.506Z,39.90
2017-12-24T04:56:05.832Z,33.70
2017-12-24T04:58:32.131Z,40.50
2017-12-24T05:00:58.382Z,38.43
2017-12-24T05:03:24.720Z,34.07
2017-12-24T05:05:51.051Z,42.07
2017-12-24T05:08:17.346Z,36.40
2017-12-24T05:10:44.390Z,35.93
2017-12-24T05:13:10.740Z,41.33
2017-12-24T05:15:37.019Z,36.60
2017-12-24T05:18:03.356Z,34.97
2017-12-24T05:20:30.448Z,41.53
2017-12-24T05:22:56.762Z,42.10
2017-12-24T05:25:23.009Z,39.73
2017-12-24T05:27:49.259Z,46.63
2017-12-24T05:30:15.514Z,43.07
2017-12-24T05:32:41.798Z,41.90
2017-12-24T05:35:08.058Z,40.93
2017-12-24T05:37:34.394Z,42.23
2017-12-24T05:40:00.650Z,37.60
2017-12-24T05:42:27.629Z,43.60
2017-12-24T05:44:53.876Z,40.37
2017-12-24T05:47:20.133Z,42.30
2017-12-24T05:49:46.471Z,42.70
2017-12-24T05:52:13.459Z,37.80
2017-12-24T05:54:40.005Z,38.27
2017-12-24T05:57:06.247Z,41.53
2017-12-24T05:59:32.512Z,35.73
2017-12-24T06:01:58.881Z,43.57
2017-12-24T06:04:25.255Z,37.00
2017-12-24T06:06:51.608Z,49.43
2017-12-24T06:09:18.581Z,41.13
2017-12-24T06:11:44.897Z,38.57
2017-12-24T06:14:11.150Z,43.00
2017-12-24T06:16:37.403Z,51.53
2017-12-24T06:19:03.722Z,38.87
2017-12-24T06:21:38.174Z,41.47
2017-12-24T06:24:04.484Z,47.27
2017-12-24T06:26:31.247Z,47.27
2017-12-24T06:28:57.523Z,44.97
2017-12-24T06:31:23.798Z,44.50
2017-12-24T06:33:50.055Z,40.00
2017-12-24T06:36:17.266Z,44.10
2017-12-24T06:38:43.574Z,39.63
2017-12-24T06:41:09.892Z,38.30
2017-12-24T06:43:36.142Z,40.30
2017-12-24T06:46:02.455Z,44.33
2017-12-24T06:48:28.700Z,39.70
2017-12-24T06:50:54.956Z,42.93
2017-12-24T06:53:21.228Z,37.83
2017-12-24T06:55:47.505Z,43.77
2017-12-24T06:58:13.760Z,38.97
2017-12-24T07:00:40.759Z,37.10
2017-12-24T07:03:07.054Z,37.07
2017-12-24T07:05:33.316Z,44.20
2017-12-24T07:07:59.614Z,41.00
2017-12-24T07:10:25.927Z,35.60
2017-12-24T07:12:52.226Z,34.67
2017-12-24T07:15:18.501Z,35.87
2017-12-24T07:17:44.760Z,40.77
2017-12-24T07:20:11.101Z,40.10
2017-12-24T07:22:37.422Z,36.10
2017-12-24T07:25:04.059Z,39.40
2017-12-24T07:27:31.115Z,36.50
2017-12-24T07:29:58.106Z,39.07
2017-12-24T07:32:24.405Z,37.50
2017-12-24T07:34:50.749Z,38.13
2017-12-24T07:37:16.990Z,39.37
2017-12-24T07:39:44.074Z,42.77
2017-12-24T07:42:10.411Z,35.30
2017-12-24T07:44:36.732Z,38.57
2017-12-24T07:47:03.038Z,51.00
2017-12-24T07:49:29.263Z,42.83
2017-12-24T07:51:55.500Z,42.97
2017-12-24T07:54:21.771Z,39.10
2017-12-24T07:56:48.079Z,38.70
2017-12-24T07:59:14.319Z,36.00
2017-12-24T08:01:40.587Z,39.30
2017-12-24T08:04:07.605Z,41.17
2017-12-24T08:06:33.887Z,45.80
2017-12-24T08:09:00.188Z,39.47
2017-12-24T08:11:27.246Z,38.43
2017-12-24T08:13:54.247Z,38.60
2017-12-24T08:16:20.543Z,43.87
2017-12-24T08:18:46.816Z,39.40
2017-12-24T08:21:13.048Z,37.60
2017-12-24T08:23:39.290Z,35.10
2017-12-24T08:26:05.663Z,41.37
2017-12-24T08:28:31.940Z,38.93
2017-12-24T08:30:58.992Z,39.47
2017-12-24T08:33:26.141Z,43.00
2017-12-24T08:35:53.210Z,40.40
2017-12-24T08:38:19.518Z,40.90
2017-12-24T08:40:45.798Z,46.00
2017-12-24T08:43:12.114Z,41.50
2017-12-24T08:45:38.451Z,46.87
2017-12-24T08:48:04.756Z,48.47
2017-12-24T08:50:30.991Z,40.77
2017-12-24T08:52:57.297Z,37.77
2017-12-24T08:55:23.570Z,42.53
2017-12-24T08:57:49.851Z,41.90
2017-12-24T09:00:16.142Z,38.40
2017-12-24T09:02:42.418Z,41.57
2017-12-24T09:05:08.713Z,40.30
2017-12-24T09:07:35.045Z,43.17
2017-12-24T09:10:01.330Z,45.37
2017-12-24T09:12:27.576Z,42.37
2017-12-24T09:14:53.832Z,44.50
2017-12-24T09:17:20.082Z,44.23
2017-12-24T09:19:46.362Z,43.10
2017-12-24T09:22:12.723Z,43.43
2017-12-24T09:24:39.082Z,44.43
2017-12-24T09:27:06.233Z,43.87
2017-12-24T09:29:33.254Z,45.20
2017-12-24T09:32:00.271Z,46.33
2017-12-24T09:34:26.544Z,41.60
2017-12-24T09:36:52.795Z,48.53
2017-12-24T09:39:19.067Z,48.03
2017-12-24T09:41:45.321Z,46.10
2017-12-24T09:44:12.461Z,44.13
2017-12-24T09:46:38.774Z,47.10
2017-12-24T09:49:05.053Z,43.90
2017-12-24T09:51:31.384Z,46.93
2017-12-24T09:53:57.767Z,52.20
2017-12-24T09:56:24.043Z,39.60
2017-12-24T09:58:50.556Z,45.17
2017-12-24T10:01:16.906Z,43.97
2017-12-24T10:03:43.225Z,40.23
2017-12-24T10:06:10.232Z,43.20
2017-12-24T10:08:36.533Z,52.83
2017-12-24T10:11:02.855Z,41.80
2017-12-24T10:13:30.830Z,42.23
2017-12-24T10:15:57.058Z,41.67
2017-12-24T10:18:24.173Z,39.30
2017-12-24T10:20:51.184Z,39.37
2017-12-24T10:23:18.567Z,39.33
2017-12-24T10:25:44.842Z,41.13
2017-12-24T10:28:11.368Z,35.70
2017-12-24T10:30:38.297Z,46.00
2017-12-24T10:33:05.274Z,45.90
2017-12-24T10:35:31.599Z,35.70
2017-12-24T10:37:57.836Z,34.50
2017-12-24T10:40:24.158Z,36.70
2017-12-24T10:42:50.496Z,44.30
2017-12-24T10:45:16.809Z,39.23
2017-12-24T10:47:48.148Z,41.17
2017-12-24T10:50:15.802Z,42.27
2017-12-24T10:52:42.127Z,37.40
2017-12-24T10:55:09.133Z,34.47
2017-12-24T10:57:35.429Z,36.30
2017-12-24T11:00:01.768Z,35.10
2017-12-24T11:02:28.083Z,32.70
2017-12-24T11:04:54.431Z,35.73
2017-12-24T11:07:20.782Z,33.37
2017-12-24T11:09:47.079Z,34.10
2017-12-24T11:12:13.388Z,36.23
2017-12-24T11:14:39.654Z,35.53
2017-12-24T11:17:05.947Z,35.67
2017-12-24T11:19:32.950Z,46.37
2017-12-24T11:22:00.043Z,37.53
2017-12-24T11:24:26.296Z,46.50
2017-12-24T11:26:52.628Z,42.30
2017-12-24T11:29:18.927Z,37.73
2017-12-24T11:31:45.266Z,36.97
2017-12-24T11:34:11.551Z,36.43
2017-12-24T11:36:37.936Z,39.03
2017-12-24T11:39:04.300Z,36.57
2017-12-24T11:41:30.573Z,36.87
2017-12-24T11:43:57.022Z,34.23
2017-12-24T11:46:23.330Z,45.80
2017-12-24T11:48:50.352Z,40.03
2017-12-24T11:51:16.702Z,37.50
2017-12-24T11:53:43.720Z,32.60
2017-12-24T11:56:10.012Z,36.57
2017-12-24T11:58:36.280Z,37.43
2017-12-24T12:01:02.563Z,33.30
2017-12-24T12:03:28.903Z,38.83
2017-12-24T12:05:55.125Z,35.90
2017-12-24T12:08:21.447Z,43.73
2017-12-24T12:10:47.691Z,34.90
2017-12-24T12:13:14.027Z,38.67
2017-12-24T12:15:40.327Z,41.43
2017-12-24T12:18:06.606Z,35.87
2017-12-24T12:20:32.937Z,31.63
2017-12-24T12:22:59.212Z,28.27
2017-12-24T12:25:25.610Z,31.07
2017-12-24T12:27:51.950Z,32.27
2017-12-24T12:30:18.240Z,32.70
2017-12-24T12:32:44.523Z,34.20
2017-12-24T12:35:11.539Z,33.87
2017-12-24T12:37:37.818Z,32.87
2017-12-24T12:40:04.080Z,33.93
2017-12-24T12:42:30.407Z,31.17
2017-12-24T12:44:56.673Z,30.50
2017-12-24T12:47:23.064Z,33.90
2017-12-24T12:49:49.366Z,32.83
2017-12-24T12:52:15.666Z,30.87
2017-12-24T12:54:42.955Z,41.13
2017-12-24T12:57:09.286Z,30.90
2017-12-24T12:59:35.578Z,34.53
2017-12-24T13:02:02.594Z,29.27
2017-12-24T13:04:28.949Z,33.07
2017-12-24T13:06:55.261Z,33.90
2017-12-24T13:09:21.485Z,40.27
2017-12-24T13:11:47.818Z,30.10
2017-12-24T13:14:14.170Z,34.50
2017-12-24T13:16:40.629Z,30.40
2017-12-24T13:19:06.982Z,32.20
2017-12-24T13:21:33.287Z,36.87
2017-12-24T13:23:59.605Z,32.17
2017-12-24T13:26:26.681Z,31.93
2017-12-24T13:28:53.017Z,29.63
2017-12-24T13:31:19.328Z,25.00
2017-12-24T13:33:45.720Z,31.47
2017-12-24T13:36:12.055Z,29.60
2017-12-24T13:38:38.381Z,31.87
2017-12-24T13:41:04.758Z,30.20
2017-12-24T13:43:31.087Z,28.30
2017-12-24T13:45:58.171Z,23.00
2017-12-24T13:48:24.474Z,21.90
2017-12-24T13:50:50.828Z,26.57
2017-12-24T13:53:17.127Z,22.50
2017-12-24T13:55:43.438Z,27.00
2017-12-24T13:58:10.588Z,28.47
2017-12-24T14:00:37.650Z,26.37
2017-12-24T14:03:04.887Z,26.07
2017-12-24T14:05:31.194Z,22.10
2017-12-24T14:07:59.040Z,26.33
2017-12-24T14:10:25.450Z,20.90
2017-12-24T14:12:51.886Z,24.03
2017-12-24T14:15:18.163Z,18.90
2017-12-24T14:17:44.412Z,20.80
2017-12-24T14:20:10.694Z,20.43
2017-12-24T14:22:37.020Z,20.30
2017-12-24T14:25:03.314Z,21.00
2017-12-24T14:27:29.563Z,19.30
2017-12-24T14:29:55.938Z,18.07
2017-12-24T14:32:22.342Z,20.27
2017-12-24T14:34:48.641Z,18.50
2017-12-24T14:37:14.940Z,23.27
2017-12-24T14:39:41.959Z,19.60
2017-12-24T14:42:08.624Z,21.53
2017-12-24T14:44:35.676Z,18.77
2017-12-24T14:47:01.962Z,17.67
2017-12-24T14:49:28.332Z,19.83
2017-12-24T14:51:55.477Z,20.23
2017-12-24T14:54:22.682Z,16.03
2017-12-24T14:56:49.112Z,21.13
2017-12-24T14:59:15.394Z,12.93
2017-12-24T15:01:42.404Z,13.33
2017-12-24T15:04:08.681Z,13.70
2017-12-24T15:06:35.035Z,13.93
2017-12-24T15:09:01.381Z,15.23
2017-12-24T15:11:27.686Z,13.37
2017-12-24T15:13:54.127Z,14.03
2017-12-24T15:16:20.380Z,13.43
2017-12-24T15:18:46.935Z,11.40
2017-12-24T15:21:13.284Z,10.40
2017-12-24T15:23:39.510Z,12.07
2017-12-24T15:26:06.519Z,12.20
2017-12-24T15:28:34.063Z,11.30
2017-12-24T15:31:00.392Z,13.60
2017-12-24T15:33:26.726Z,12.60
2017-12-24T15:35:52.996Z,11.30
2017-12-24T15:38:20.112Z,10.50
2017-12-24T15:40:46.506Z,9.13
2017-12-24T15:43:12.808Z,11.63
2017-12-24T15:45:39.508Z,8.87
2017-12-24T15:48:05.807Z,10.70
2017-12-24T15:50:32.143Z,12.57
2017-12-24T15:52:58.516Z,10.50
2017-12-24T15:55:24.794Z,10.67
2017-12-24T15:57:51.090Z,12.50
2017-12-24T16:00:17.369Z,12.13
2017-12-24T16:02:44.850Z,14.23
2017-12-24T16:05:11.963Z,13.77
2017-12-24T16:07:38.293Z,17.70
2017-12-24T16:10:04.623Z,15.47
2017-12-24T16:12:30.967Z,11.50
2017-12-24T16:14:57.232Z,13.37
2017-12-24T16:17:24.431Z,11.83
2017-12-24T16:19:50.719Z,16.53
2017-12-24T16:22:16.978Z,14.17
2017-12-24T16:24:43.317Z,13.40
2017-12-24T16:27:09.668Z,10.70
2017-12-24T16:29:36.020Z,10.20
2017-12-24T16:32:03.018Z,14.97
2017-12-24T16:34:29.294Z,20.70
2017-12-24T16:36:55.559Z,19.50
2017-12-24T16:39:22.580Z,14.67
2017-12-24T16:41:48.924Z,11.70
2017-12-24T16:44:16.262Z,9.87
2017-12-24T16:46:42.596Z,10.43
2017-12-24T16:49:08.850Z,11.10
2017-12-24T16:51:35.227Z,11.23
2017-12-24T16:54:01.610Z,12.90
2017-12-24T16:56:28.683Z,8.20
2017-12-24T16:58:54.917Z,7.23
2017-12-24T17:01:21.175Z,7.40
2017-12-24T17:03:47.463Z,7.23
2017-12-24T17:06:13.678Z,6.87
2017-12-24T17:08:40.128Z,6.70
2017-12-24T17:11:06.341Z,6.50
2017-12-24T17:13:32.720Z,6.03
2017-12-24T17:15:59.006Z,6.70
2017-12-24T17:18:25.215Z,8.30
2017-12-24T17:20:51.500Z,5.83
2017-12-24T17:23:17.705Z,10.60
2017-12-24T17:25:43.948Z,7.43
2017-12-24T17:28:10.454Z,10.80
2017-12-24T17:30:36.691Z,6.03
2017-12-24T17:33:02.959Z,10.50
2017-12-24T17:35:29.243Z,6.57
2017-12-24T17:37:56.228Z,5.50
2017-12-24T17:40:22.525Z,5.90
2017-12-24T17:42:48.801Z,5.03
2017-12-24T17:45:15.057Z,4.87
2017-12-24T17:47:42.034Z,5.50
2017-12-24T17:50:08.334Z,7.87
2017-12-24T17:52:35.310Z,6.87
2017-12-24T17:55:01.548Z,6.27
2017-12-24T17:57:27.766Z,7.67
2017-12-24T17:59:54.100Z,5.80
2017-12-24T18:02:20.327Z,5.90
2017-12-24T18:04:46.642Z,6.60
2017-12-24T18:07:12.891Z,5.37
2017-12-24T18:09:39.203Z,6.80
2017-12-24T18:12:05.484Z,8.67
2017-12-24T18:14:31.818Z,5.50
2017-12-24T18:16:58.065Z,6.93
2017-12-24T18:19:25.036Z,7.27
2017-12-24T18:21:51.306Z,6.10
2017-12-24T18:24:17.556Z,7.87
2017-12-24T18:26:44.594Z,5.77
2017-12-24T18:29:10.862Z,6.90
2017-12-24T18:31:37.165Z,6.90
2017-12-24T18:34:03.615Z,5.33
2017-12-24T18:36:30.123Z,5.90
2017-12-24T18:38:57.206Z,6.17
2017-12-24T18:41:23.656Z,6.17
2017-12-24T18:43:50.016Z,11.17
2017-12-24T18:46:17.171Z,8.47
2017-12-24T18:48:43.420Z,6.80
2017-12-24T18:51:17.339Z,6.20
2017-12-24T18:53:44.336Z,8.97
2017-12-24T18:56:10.687Z,7.73
2017-12-24T18:58:37.073Z,8.93
2017-12-24T19:01:03.320Z,7.23
2017-12-24T19:03:29.611Z,7.87
2017-12-24T19:05:55.819Z,7.43
2017-12-24T19:08:22.782Z,9.33
2017-12-24T19:10:49.814Z,8.40
2017-12-24T19:13:16.056Z,10.30
2017-12-24T19:15:43.056Z,10.50
2017-12-24T19:18:09.275Z,9.10
2017-12-24T19:20:35.510Z,10.50
2017-12-24T19:23:01.733Z,9.30
2017-12-24T19:25:27.978Z,10.47
2017-12-24T19:27:54.316Z,13.47
2017-12-24T19:30:20.620Z,8.13
2017-12-24T19:32:46.896Z,8.07
2017-12-24T19:35:13.123Z,7.47
2017-12-24T19:37:40.128Z,7.83
2017-12-24T19:40:06.408Z,9.20
2017-12-24T19:42:33.397Z,10.70
2017-12-24T19:44:59.647Z,10.60
2017-12-24T19:47:25.931Z,10.00
2017-12-24T19:49:52.186Z,9.20
2017-12-24T19:52:18.418Z,9.13
2017-12-24T19:54:44.673Z,17.70
2017-12-24T19:57:10.953Z,8.63
2017-12-24T19:59:37.189Z,12.93
2017-12-24T20:02:03.488Z,9.50
2017-12-24T20:04:29.760Z,10.70
2017-12-24T20:06:56.916Z,10.33
2017-12-24T20:09:23.934Z,12.37
2017-12-24T20:11:50.207Z,12.90
2017-12-24T20:14:16.547Z,11.90
2017-12-24T20:16:43.537Z,12.93
2017-12-24T20:19:09.782Z,13.50
2017-12-24T20:21:36.033Z,11.87
2017-12-24T20:24:02.434Z,12.90
2017-12-24T20:26:28.691Z,14.00
2017-12-24T20:28:54.942Z,15.70
2017-12-24T20:31:21.955Z,14.13
2017-12-24T20:33:48.280Z,16.13
2017-12-24T20:36:14.564Z,14.63
2017-12-24T20:38:40.842Z,13.20
2017-12-24T20:41:07.175Z,14.73
2017-12-24T20:43:33.501Z,15.07
2017-12-24T20:45:59.754Z,16.70
2017-12-24T20:48:26.803Z,17.20
2017-12-24T20:50:53.054Z,18.03
2017-12-24T20:53:19.291Z,17.93
2017-12-24T20:55:45.567Z,17.80
2017-12-24T20:58:11.845Z,15.67
2017-12-24T21:00:38.119Z,16.40
2017-12-24T21:03:04.401Z,21.00
2017-12-24T21:05:30.680Z,15.20
2017-12-24T21:07:56.907Z,26.13
2017-12-24T21:10:23.199Z,21.20
2017-12-24T21:12:49.526Z,18.03
2017-12-24T21:15:15.784Z,19.60
2017-12-24T21:17:42.090Z,17.43
2017-12-24T21:20:08.326Z,18.53
2017-12-24T21:22:34.594Z,17.60
2017-12-24T21:25:00.824Z,19.97
2017-12-24T21:27:27.115Z,38.13
2017-12-24T21:29:53.390Z,16.77
2017-12-24T21:32:20.459Z,19.93
2017-12-24T21:34:47.465Z,18.00
2017-12-24T21:37:13.710Z,18.17
2017-12-24T21:39:39.990Z,20.40
2017-12-24T21:42:06.267Z,21.00
2017-12-24T21:44:33.285Z,20.40
2017-12-24T21:46:59.590Z,17.97
2017-12-24T21:49:25.917Z,19.73
2017-12-24T21:51:52.247Z,22.03
2017-12-24T21:54:18.494Z,19.73
2017-12-24T21:56:44.793Z,19.07
2017-12-24T21:59:11.065Z,20.27
2017-12-24T22:01:37.346Z,22.93
2017-12-24T22:04:03.716Z,23.17
2017-12-24T22:06:30.019Z,26.47
2017-12-24T22:08:56.256Z,23.53
2017-12-24T22:11:22.526Z,18.67
2017-12-24T22:13:48.833Z,17.83
2017-12-24T22:16:15.132Z,16.20
2017-12-24T22:18:41.498Z,19.40
2017-12-24T22:21:07.835Z,19.80
2017-12-24T22:23:34.104Z,17.53
2017-12-24T22:26:01.094Z,17.70
2017-12-24T22:28:27.359Z,18.63
2017-12-24T22:30:54.358Z,17.77
2017-12-24T22:33:20.686Z,14.73
2017-12-24T22:35:47.243Z,17.40
2017-12-24T22:38:13.741Z,16.63
2017-12-24T22:40:41.219Z,25.17
2017-12-24T22:43:08.292Z,17.00
2017-12-24T22:45:35.036Z,19.43
2017-12-24T22:48:01.325Z,16.10
2017-12-24T22:50:27.552Z,15.03
2017-12-24T22:52:53.861Z,20.40
2017-12-24T22:55:20.172Z,18.30
2017-12-24T22:57:46.524Z,16.40
2017-12-24T23:00:12.957Z,17.07
2017-12-24T23:02:39.231Z,20.43
2017-12-24T23:05:05.499Z,14.30
2017-12-24T23:07:32.527Z,14.63
2017-12-24T23:09:59.536Z,13.70
2017-12-24T23:12:25.775Z,15.37
2017-12-24T23:14:52.117Z,13.03
2017-12-24T23:17:18.443Z,15.87
2017-12-24T23:19:45.475Z,15.30
2017-12-24T23:22:12.616Z,13.70
2017-12-24T23:24:38.859Z,18.73
2017-12-24T23:27:05.217Z,14.00
2017-12-24T23:29:31.443Z,15.20
2017-12-24T23:31:57.678Z,13.23
2017-12-24T23:34:24.705Z,14.67
2017-12-24T23:36:50.940Z,12.13
2017-12-24T23:39:17.254Z,13.40
2017-12-24T23:41:44.318Z,13.50
2017-12-24T23:44:10.601Z,17.60
2017-12-24T23:46:36.899Z,15.80
2017-12-24T23:49:03.870Z,12.10
2017-12-24T23:51:30.278Z,14.70
2017-12-24T23:53:56.713Z,13.23
2017-12-24T23:56:23.733Z,13.23
2017-12-24T23:58:50.806Z,11.80
